PWSweather.com
Personal Weather Stations
Station Observations
MADWEATHER
MadeiraPT

MadeiraPT

Lat: 32.735, Lon: -17.194

Elevation: 1063

Station Type: Davis VantagePro2

Latest ConditionsUpdated 1:50:01 PM GMT Monday, Jul 25, 2016
Currently Today's Max Today's Min Today's Average
Temperature 74.5°F23.6°C 76.0°F24.4°C 62.1°F16.7°C 68.2°F20.1°C
Dew Point 66.8°F19.3°C 67.7°F19.8°C 53.9°F12.2°C 61.3°F16.3°C
Winds 3.9 mph SW6.3 kmh SW 6.4 mph SW10.3 kmh SW - 1.9 mph 3.1 kmh
Wind Gusts 7.0 mph11.3 kmh 10.0 mph16.1 kmh - -
Humidity 77% 89% 67% 79%
Pressure 30.02 in1016.6 mb 30.03 in1016.9 mb 29.96 in1014.6 mb -
Hour Temp Dew Point Humidity Winds Wind Gusts Pressure Precip Precip Rate Daily Precip Total
01:50 PM 74.5°F23.6°C 66.8°F19.3°C 77% 3.9 mph SW6.3 kmh SW 7.0 mph11.3 kmh 30.02 in1016.6 mb - 0.00 in0.0 mm 0.00 in0.0 mm
01:40 PM 75.1°F23.9°C 66.2°F19.0°C 74% 4.6 mph SW7.4 kmh SW 9.0 mph14.5 kmh 30.02 in1016.6 mb - 0.00 in0.0 mm 0.00 in0.0 mm
01:30 PM 75.4°F24.1°C 66.5°F19.2°C 74% 6.4 mph SW10.3 kmh SW 9.0 mph14.5 kmh 30.02 in1016.6 mb - 0.00 in0.0 mm 0.00 in0.0 mm
01:20 PM 74.3°F23.5°C 65.9°F18.8°C 75% 4.9 mph SW7.9 kmh SW 10.0 mph16.1 kmh 30.03 in1016.9 mb - 0.00 in0.0 mm 0.00 in0.0 mm
01:10 PM 74.2°F23.4°C 66.6°F19.2°C 77% 3.9 mph SW6.3 kmh SW 5.0 mph8.0 kmh 30.03 in1016.9 mb - 0.00 in0.0 mm 0.00 in0.0 mm
01:00 PM 75.0°F23.9°C 66.6°F19.2°C 75% 4.4 mph SW7.1 kmh SW 6.0 mph9.7 kmh 30.03 in1016.9 mb - 0.00 in0.0 mm 0.00 in0.0 mm
12:50 PM 74.8°F23.8°C 66.7°F19.3°C 76% 3.5 mph SW5.6 kmh SW 5.0 mph8.0 kmh 30.03 in1016.9 mb - 0.00 in0.0 mm 0.00 in0.0 mm
12:40 PM 74.4°F23.6°C 66.7°F19.3°C 77% 5.5 mph SW8.9 kmh SW 7.0 mph11.3 kmh 30.02 in1016.6 mb - 0.00 in0.0 mm 0.00 in0.0 mm
12:30 PM 75.8°F24.3°C 67.7°F19.8°C 76% 4.4 mph SW7.1 kmh SW 9.0 mph14.5 kmh 30.02 in1016.6 mb - 0.00 in0.0 mm 0.00 in0.0 mm
12:20 PM 75.9°F24.4°C 67.4°F19.7°C 75% 4.3 mph SW6.9 kmh SW 6.0 mph9.7 kmh 30.02 in1016.6 mb - 0.00 in0.0 mm 0.00 in0.0 mm
12:10 PM 75.5°F24.2°C 66.6°F19.2°C 74% 5.0 mph SW8.0 kmh SW 7.0 mph11.3 kmh 30.02 in1016.6 mb - 0.00 in0.0 mm 0.00 in0.0 mm
12:00 PM 76.0°F24.4°C 67.1°F19.5°C 74% 4.0 mph SW6.4 kmh SW 7.0 mph11.3 kmh 30.02 in1016.6 mb - 0.00 in0.0 mm 0.00 in0.0 mm
11:50 AM 75.7°F24.3°C 67.6°F19.8°C 76% 3.9 mph SW6.3 kmh SW 6.0 mph9.7 kmh 30.02 in1016.6 mb - 0.00 in0.0 mm 0.00 in0.0 mm
11:40 AM 75.6°F24.2°C 67.5°F19.7°C 76% 3.0 mph SW4.8 kmh SW 5.0 mph8.0 kmh 30.02 in1016.6 mb - 0.00 in0.0 mm 0.00 in0.0 mm
11:30 AM 75.7°F24.3°C 67.2°F19.6°C 75% 2.6 mph SW4.2 kmh SW 4.0 mph6.4 kmh 30.02 in1016.6 mb - 0.00 in0.0 mm 0.00 in0.0 mm
11:20 AM 75.2°F24.0°C 66.7°F19.3°C 75% 3.8 mph SW6.1 kmh SW 5.0 mph8.0 kmh 30.02 in1016.6 mb - 0.00 in0.0 mm 0.00 in0.0 mm
11:10 AM 74.7°F23.7°C 66.6°F19.2°C 76% 3.4 mph SW5.5 kmh SW 5.0 mph8.0 kmh 30.02 in1016.6 mb - 0.00 in0.0 mm 0.00 in0.0 mm
11:00 AM 73.4°F23.0°C 66.1°F18.9°C 78% 3.1 mph SW5.0 kmh SW 4.0 mph6.4 kmh 30.02 in1016.6 mb - 0.00 in0.0 mm 0.00 in0.0 mm
10:50 AM 73.0°F22.8°C 65.4°F18.6°C 77% 2.2 mph SW3.5 kmh SW 2.0 mph3.2 kmh 30.01 in1016.3 mb - 0.00 in0.0 mm 0.00 in0.0 mm
10:40 AM 74.8°F23.8°C 66.7°F19.3°C 76% 3.1 mph SW5.0 kmh SW 5.0 mph8.0 kmh 30.00 in1015.9 mb - 0.00 in0.0 mm 0.00 in0.0 mm
10:30 AM 75.0°F23.9°C 66.6°F19.2°C 75% 3.0 mph SW4.8 kmh SW 4.0 mph6.4 kmh 30.00 in1015.9 mb - 0.00 in0.0 mm 0.00 in0.0 mm
10:20 AM 74.0°F23.3°C 65.6°F18.7°C 75% 1.3 mph SW2.1 kmh SW 2.0 mph3.2 kmh 30.00 in1015.9 mb - 0.00 in0.0 mm 0.00 in0.0 mm
10:10 AM 73.9°F23.3°C 65.1°F18.4°C 74% 2.6 mph SW4.2 kmh SW 4.0 mph6.4 kmh 30.00 in1015.9 mb - 0.00 in0.0 mm 0.00 in0.0 mm
10:00 AM 74.2°F23.4°C 65.8°F18.8°C 75% 2.9 mph SW4.7 kmh SW 4.0 mph6.4 kmh 30.00 in1015.9 mb - 0.00 in0.0 mm 0.00 in0.0 mm
09:50 AM 73.0°F22.8°C 66.1°F18.9°C 79% 0.5 mph SW0.8 kmh SW 1.0 mph1.6 kmh 30.00 in1015.9 mb - 0.00 in0.0 mm 0.00 in0.0 mm
09:40 AM 71.3°F21.8°C 65.2°F18.4°C 81% 1.2 mph SW1.9 kmh SW 4.0 mph6.4 kmh 30.00 in1015.9 mb - 0.00 in0.0 mm 0.00 in0.0 mm
09:30 AM 71.2°F21.8°C 65.4°F18.6°C 82% 2.4 mph SW3.9 kmh SW 4.0 mph6.4 kmh 30.00 in1015.9 mb - 0.00 in0.0 mm 0.00 in0.0 mm
09:20 AM 70.0°F21.1°C 64.9°F18.3°C 84% 1.1 mph SW1.8 kmh SW 2.0 mph3.2 kmh 30.00 in1015.9 mb - 0.00 in0.0 mm 0.00 in0.0 mm
09:10 AM 69.0°F20.6°C 63.9°F17.7°C 84% 0.9 mph SW1.4 kmh SW 2.0 mph3.2 kmh 30.00 in1015.9 mb - 0.00 in0.0 mm 0.00 in0.0 mm
09:00 AM 68.5°F20.3°C 63.1°F17.3°C 83% 1.1 mph SW1.8 kmh SW 2.0 mph3.2 kmh 30.00 in1015.9 mb - 0.00 in0.0 mm 0.00 in0.0 mm
08:50 AM 68.0°F20.0°C 63.0°F17.2°C 84% 1.5 mph SW2.4 kmh SW 3.0 mph4.8 kmh 29.99 in1015.6 mb - 0.00 in0.0 mm 0.00 in0.0 mm
08:40 AM 68.4°F20.2°C 64.0°F17.8°C 86% 2.3 mph SW3.7 kmh SW 4.0 mph6.4 kmh 29.99 in1015.6 mb - 0.00 in0.0 mm 0.00 in0.0 mm
08:30 AM 68.5°F20.3°C 64.5°F18.1°C 87% 1.2 mph SW1.9 kmh SW 2.0 mph3.2 kmh 29.99 in1015.6 mb - 0.00 in0.0 mm 0.00 in0.0 mm
08:20 AM 68.3°F20.2°C 64.3°F17.9°C 87% Calm Calm -- 30.00 in1015.9 mb - 0.00 in0.0 mm 0.00 in0.0 mm
08:10 AM 68.0°F20.0°C 64.3°F17.9°C 88% Calm Calm -- 30.00 in1015.9 mb - 0.00 in0.0 mm 0.00 in0.0 mm
08:00 AM 67.5°F19.7°C 63.5°F17.5°C 87% Calm Calm -- 30.00 in1015.9 mb - 0.00 in0.0 mm 0.00 in0.0 mm
07:50 AM 66.5°F19.2°C 61.6°F16.4°C 84% Calm Calm 1.0 mph1.6 kmh 30.00 in1015.9 mb - 0.00 in0.0 mm 0.00 in0.0 mm
07:40 AM 65.6°F18.7°C 59.3°F15.2°C 80% Calm Calm -- 29.99 in1015.6 mb - 0.00 in0.0 mm 0.00 in0.0 mm
07:30 AM 64.8°F18.2°C 57.8°F14.3°C 78% Calm Calm -- 29.99 in1015.6 mb - 0.00 in0.0 mm 0.00 in0.0 mm
07:20 AM 63.5°F17.5°C 56.8°F13.8°C 79% 0.4 mph SW0.6 kmh SW 1.0 mph1.6 kmh 29.98 in1015.2 mb - 0.00 in0.0 mm 0.00 in0.0 mm
07:10 AM 62.6°F17.0°C 57.7°F14.3°C 84% 1.9 mph SW3.1 kmh SW 2.0 mph3.2 kmh 29.98 in1015.2 mb - 0.00 in0.0 mm 0.00 in0.0 mm
07:00 AM 63.1°F17.3°C 59.5°F15.3°C 88% Calm Calm -- 29.98 in1015.2 mb - 0.00 in0.0 mm 0.00 in0.0 mm
06:50 AM 62.1°F16.7°C 57.6°F14.2°C 85% Calm Calm -- 29.98 in1015.2 mb - 0.00 in0.0 mm 0.00 in0.0 mm
06:40 AM 63.2°F17.3°C 59.9°F15.5°C 89% 2.3 mph SW3.7 kmh SW 3.0 mph4.8 kmh 29.98 in1015.2 mb - 0.00 in0.0 mm 0.00 in0.0 mm
06:30 AM 63.7°F17.6°C 60.4°F15.8°C 89% Calm Calm -- 29.98 in1015.2 mb - 0.00 in0.0 mm 0.00 in0.0 mm
06:20 AM 63.3°F17.4°C 59.1°F15.1°C 86% Calm Calm -- 29.98 in1015.2 mb - 0.00 in0.0 mm 0.00 in0.0 mm
06:10 AM 62.6°F17.0°C 56.7°F13.7°C 81% 0.3 mph SW0.5 kmh SW -- 29.97 in1014.9 mb - 0.00 in0.0 mm 0.00 in0.0 mm
06:00 AM 63.1°F17.3°C 58.2°F14.6°C 84% Calm Calm 2.0 mph3.2 kmh 29.97 in1014.9 mb - 0.00 in0.0 mm 0.00 in0.0 mm
05:50 AM 64.0°F17.8°C 59.8°F15.4°C 86% Calm Calm -- 29.97 in1014.9 mb - 0.00 in0.0 mm 0.00 in0.0 mm
05:40 AM 64.5°F18.1°C 59.6°F15.3°C 84% Calm Calm -- 29.97 in1014.9 mb - 0.00 in0.0 mm 0.00 in0.0 mm
05:30 AM 64.1°F17.8°C 56.7°F13.7°C 77% Calm Calm -- 29.97 in1014.9 mb - 0.00 in0.0 mm 0.00 in0.0 mm
05:20 AM 64.0°F17.8°C 56.6°F13.7°C 77% Calm Calm -- 29.96 in1014.6 mb - 0.00 in0.0 mm 0.00 in0.0 mm
05:10 AM 64.4°F18.0°C 58.4°F14.7°C 81% Calm Calm -- 29.96 in1014.6 mb - 0.00 in0.0 mm 0.00 in0.0 mm
05:00 AM 64.5°F18.1°C 59.2°F15.1°C 83% Calm Calm -- 29.96 in1014.6 mb - 0.00 in0.0 mm 0.00 in0.0 mm
04:50 AM 64.5°F18.1°C 59.6°F15.3°C 84% 2.8 mph SW4.5 kmh SW 4.0 mph6.4 kmh 29.97 in1014.9 mb - 0.00 in0.0 mm 0.00 in0.0 mm
04:40 AM 64.5°F18.1°C 58.9°F14.9°C 82% 2.5 mph SW4.0 kmh SW 4.0 mph6.4 kmh 29.97 in1014.9 mb - 0.00 in0.0 mm 0.00 in0.0 mm
04:30 AM 64.1°F17.8°C 58.5°F14.7°C 82% 3.0 mph SW4.8 kmh SW 4.0 mph6.4 kmh 29.96 in1014.6 mb - 0.00 in0.0 mm 0.00 in0.0 mm
04:20 AM 64.4°F18.0°C 60.8°F16.0°C 88% 2.7 mph SW4.3 kmh SW 4.0 mph6.4 kmh 29.96 in1014.6 mb - 0.00 in0.0 mm 0.00 in0.0 mm
04:10 AM 64.6°F18.1°C 61.0°F16.1°C 88% 3.4 mph SW5.5 kmh SW 5.0 mph8.0 kmh 29.96 in1014.6 mb - 0.00 in0.0 mm 0.00 in0.0 mm
04:00 AM 64.5°F18.1°C 60.9°F16.1°C 88% 2.9 mph SW4.7 kmh SW 4.0 mph6.4 kmh 29.96 in1014.6 mb - 0.00 in0.0 mm 0.00 in0.0 mm
03:50 AM 64.2°F17.9°C 60.2°F15.7°C 87% 4.6 mph SW7.4 kmh SW 5.0 mph8.0 kmh 29.96 in1014.6 mb - 0.00 in0.0 mm 0.00 in0.0 mm
03:40 AM 64.3°F17.9°C 60.7°F15.9°C 88% 3.8 mph SW6.1 kmh SW 5.0 mph8.0 kmh 29.96 in1014.6 mb - 0.00 in0.0 mm 0.00 in0.0 mm
03:30 AM 64.2°F17.9°C 60.0°F15.6°C 86% 3.5 mph SW5.6 kmh SW 4.0 mph6.4 kmh 29.96 in1014.6 mb - 0.00 in0.0 mm 0.00 in0.0 mm
03:20 AM 64.4°F18.0°C 59.1°F15.1°C 83% 2.9 mph SW4.7 kmh SW 4.0 mph6.4 kmh 29.96 in1014.6 mb - 0.00 in0.0 mm 0.00 in0.0 mm
03:10 AM 64.5°F18.1°C 58.2°F14.6°C 80% 3.3 mph SW5.3 kmh SW 4.0 mph6.4 kmh 29.96 in1014.6 mb - 0.00 in0.0 mm 0.00 in0.0 mm
03:00 AM 64.8°F18.2°C 57.7°F14.3°C 78% 2.2 mph SW3.5 kmh SW 3.0 mph4.8 kmh 29.97 in1014.9 mb - 0.00 in0.0 mm 0.00 in0.0 mm
02:50 AM 64.6°F18.1°C 56.1°F13.4°C 74% 2.1 mph SW3.4 kmh SW 4.0 mph6.4 kmh 29.97 in1014.9 mb - 0.00 in0.0 mm 0.00 in0.0 mm
02:40 AM 64.6°F18.1°C 55.0°F12.8°C 71% 2.4 mph SW3.9 kmh SW 3.0 mph4.8 kmh 29.97 in1014.9 mb - 0.00 in0.0 mm 0.00 in0.0 mm
02:30 AM 64.9°F18.3°C 56.0°F13.3°C 73% 1.6 mph SW2.6 kmh SW 4.0 mph6.4 kmh 29.97 in1014.9 mb - 0.00 in0.0 mm 0.00 in0.0 mm
02:20 AM 64.7°F18.2°C 53.9°F12.2°C 68% 0.1 mph SW0.2 kmh SW 2.0 mph3.2 kmh 29.97 in1014.9 mb - 0.00 in0.0 mm 0.00 in0.0 mm
02:10 AM 65.4°F18.6°C 56.5°F13.6°C 73% 1.2 mph SW1.9 kmh SW 3.0 mph4.8 kmh 29.97 in1014.9 mb - 0.00 in0.0 mm 0.00 in0.0 mm
02:00 AM 65.5°F18.6°C 54.7°F12.6°C 68% Calm Calm -- 29.98 in1015.2 mb - 0.00 in0.0 mm 0.00 in0.0 mm
01:50 AM 65.4°F18.6°C 54.2°F12.3°C 67% Calm Calm -- 29.98 in1015.2 mb - 0.00 in0.0 mm 0.00 in0.0 mm
01:40 AM 65.5°F18.6°C 54.7°F12.6°C 68% Calm Calm -- 29.98 in1015.2 mb - 0.00 in0.0 mm 0.00 in0.0 mm
01:30 AM 65.5°F18.6°C 55.5°F13.1°C 70% 3.0 mph SW4.8 kmh SW 3.0 mph4.8 kmh 29.98 in1015.2 mb - 0.00 in0.0 mm 0.00 in0.0 mm
01:20 AM 65.4°F18.6°C 55.7°F13.2°C 71% 2.1 mph SW3.4 kmh SW 3.0 mph4.8 kmh 29.98 in1015.2 mb - 0.00 in0.0 mm 0.00 in0.0 mm
01:10 AM 65.6°F18.7°C 56.3°F13.5°C 72% Calm Calm -- 29.98 in1015.2 mb - 0.00 in0.0 mm 0.00 in0.0 mm
01:00 AM 65.3°F18.5°C 56.1°F13.4°C 72% Calm Calm 1.0 mph1.6 kmh 29.99 in1015.6 mb - 0.00 in0.0 mm 0.00 in0.0 mm
12:50 AM 65.4°F18.6°C 56.1°F13.4°C 72% 1.3 mph SW2.1 kmh SW 2.0 mph3.2 kmh 29.99 in1015.6 mb - 0.00 in0.0 mm 0.00 in0.0 mm
12:40 AM 65.9°F18.8°C 57.0°F13.9°C 73% Calm Calm -- 30.00 in1015.9 mb - 0.00 in0.0 mm 0.00 in0.0 mm
12:30 AM 66.0°F18.9°C 56.7°F13.7°C 72% Calm Calm -- 30.00 in1015.9 mb - 0.00 in0.0 mm 0.00 in0.0 mm
12:20 AM 66.1°F18.9°C 56.8°F13.8°C 72% Calm Calm -- 30.00 in1015.9 mb - 0.00 in0.0 mm 0.00 in0.0 mm
12:10 AM 66.0°F18.9°C 56.7°F13.7°C 72% 1.8 mph SW2.9 kmh SW 4.0 mph6.4 kmh 30.00 in1015.9 mb - 0.00 in0.0 mm 0.00 in0.0 mm
12:00 AM 66.0°F18.9°C 57.1°F13.9°C 73% Calm Calm -- 30.00 in1015.9 mb - 0.00 in0.0 mm 0.00 in0.0 mm